EKKA/KRP METAR and TAF weather

Enter ICAO airport designator
Station Type Date Time Source
EKKA METAR 2021/09/16 20:50 UTC NOAA

EKKA 162050Z AUTO 36009KT 9999 OVC008/// 12/11 Q1012


Station Type Date Time Source
EKKA Decoded METAR 2021/09/16 20:50 UTC NOAA

Karup, Denmark (EKKA) 56-18N 009-07E 53M
Sep 16, 2021 - 04:50 PM EDT / 2021.09.16 2050 UTC
Wind: from the N (360 degrees) at 10 MPH (9 KT):0
Visibility: greater than 7 mile(s):0
Sky conditions: overcast
Temperature: 53 F (12 C)
Dew Point: 51 F (11 C)
Relative Humidity: 93%
Pressure (altimeter): 29.88 in. Hg (1012 hPa)
ob: EKKA 162050Z AUTO 36009KT 9999 OVC008/// 12/11 Q1012
cycle: 21

Station Type Date Time Source
EKKA TAF 2021/09/16 21:31 UTC NOAA

TAF EKKA 162007Z 1621/1721 35012KT 9999 SCT010 BKN015
TEMPO 1621/1707 4500 -DZ BKN008
TEMPO 1707/1712 BKN012
BECMG 1707/1710 02012KT

Example: see airport list